sensor_id;sensor_type;location;lat;lon;timestamp;P1;durP1;ratioP1;P2;durP2;ratioP2
11771;SDS011;12556;55.748;13.194;2022-08-19T00:01:21;24.43;;;22.03;;
11771;SDS011;12556;55.748;13.194;2022-08-19T00:03:48;25.13;;;22.47;;
11771;SDS011;12556;55.748;13.194;2022-08-19T00:06:15;26.63;;;21.47;;
11771;SDS011;12556;55.748;13.194;2022-08-19T00:08:42;23.47;;;20.97;;
11771;SDS011;12556;55.748;13.194;2022-08-19T00:11:10;24.93;;;22.43;;
11771;SDS011;12556;55.748;13.194;2022-08-19T00:13:39;27.90;;;21.80;;
11771;SDS011;12556;55.748;13.194;2022-08-19T00:16:06;27.30;;;22.67;;
11771;SDS011;12556;55.748;13.194;2022-08-19T00:18:33;25.77;;;21.40;;
11771;SDS011;12556;55.748;13.194;2022-08-19T00:21:01;27.07;;;24.40;;
11771;SDS011;12556;55.748;13.194;2022-08-19T00:23:33;25.93;;;23.23;;
11771;SDS011;12556;55.748;13.194;2022-08-19T00:26:01;24.53;;;22.13;;
11771;SDS011;12556;55.748;13.194;2022-08-19T00:28:28;25.70;;;23.20;;
11771;SDS011;12556;55.748;13.194;2022-08-19T00:30:57;24.67;;;22.13;;
11771;SDS011;12556;55.748;13.194;2022-08-19T00:33:24;24.20;;;21.67;;
11771;SDS011;12556;55.748;13.194;2022-08-19T00:35:51;25.93;;;23.40;;
11771;SDS011;12556;55.748;13.194;2022-08-19T00:38:18;25.77;;;23.20;;
11771;SDS011;12556;55.748;13.194;2022-08-19T00:40:47;26.70;;;23.60;;
11771;SDS011;12556;55.748;13.194;2022-08-19T00:43:17;25.57;;;22.97;;
11771;SDS011;12556;55.748;13.194;2022-08-19T00:45:46;27.43;;;24.73;;
11771;SDS011;12556;55.748;13.194;2022-08-19T00:48:16;27.33;;;24.73;;
11771;SDS011;12556;55.748;13.194;2022-08-19T00:50:43;27.33;;;24.40;;
11771;SDS011;12556;55.748;13.194;2022-08-19T00:53:12;27.43;;;24.43;;
11771;SDS011;12556;55.748;13.194;2022-08-19T00:55:42;27.73;;;24.97;;
11771;SDS011;12556;55.748;13.194;2022-08-19T00:58:13;26.03;;;23.30;;
11771;SDS011;12556;55.748;13.194;2022-08-19T01:00:45;26.27;;;23.77;;
11771;SDS011;12556;55.748;13.194;2022-08-19T01:03:14;28.83;;;25.40;;
11771;SDS011;12556;55.748;13.194;2022-08-19T01:05:44;27.47;;;24.97;;
11771;SDS011;12556;55.748;13.194;2022-08-19T01:08:13;27.03;;;24.43;;
11771;SDS011;12556;55.748;13.194;2022-08-19T01:10:43;27.43;;;24.63;;
11771;SDS011;12556;55.748;13.194;2022-08-19T01:13:13;27.97;;;25.30;;
11771;SDS011;12556;55.748;13.194;2022-08-19T01:15:42;27.93;;;25.20;;
11771;SDS011;12556;55.748;13.194;2022-08-19T01:18:13;27.37;;;24.57;;
11771;SDS011;12556;55.748;13.194;2022-08-19T01:20:44;27.07;;;24.40;;
11771;SDS011;12556;55.748;13.194;2022-08-19T01:23:14;27.50;;;25.00;;
11771;SDS011;12556;55.748;13.194;2022-08-19T01:25:42;25.83;;;22.97;;
11771;SDS011;12556;55.748;13.194;2022-08-19T01:28:14;26.20;;;23.53;;
11771;SDS011;12556;55.748;13.194;2022-08-19T01:30:42;26.60;;;23.87;;
11771;SDS011;12556;55.748;13.194;2022-08-19T01:33:10;26.60;;;23.57;;
11771;SDS011;12556;55.748;13.194;2022-08-19T01:35:37;24.87;;;22.37;;
11771;SDS011;12556;55.748;13.194;2022-08-19T01:38:05;24.53;;;22.03;;
11771;SDS011;12556;55.748;13.194;2022-08-19T01:40:37;24.50;;;21.90;;
11771;SDS011;12556;55.748;13.194;2022-08-19T01:43:07;26.53;;;23.83;;
11771;SDS011;12556;55.748;13.194;2022-08-19T01:45:33;26.00;;;23.53;;
11771;SDS011;12556;55.748;13.194;2022-08-19T01:48:01;25.00;;;22.30;;
11771;SDS011;12556;55.748;13.194;2022-08-19T01:50:29;23.20;;;21.10;;
11771;SDS011;12556;55.748;13.194;2022-08-19T01:52:57;25.97;;;23.40;;
11771;SDS011;12556;55.748;13.194;2022-08-19T01:55:25;23.43;;;21.10;;
11771;SDS011;12556;55.748;13.194;2022-08-19T01:57:53;24.60;;;22.10;;
11771;SDS011;12556;55.748;13.194;2022-08-19T02:00:24;23.40;;;21.20;;
11771;SDS011;12556;55.748;13.194;2022-08-19T02:02:53;24.63;;;22.03;;
11771;SDS011;12556;55.748;13.194;2022-08-19T02:05:20;27.47;;;24.63;;
11771;SDS011;12556;55.748;13.194;2022-08-19T02:07:47;24.30;;;22.00;;
11771;SDS011;12556;55.748;13.194;2022-08-19T02:10:16;24.80;;;22.13;;
11771;SDS011;12556;55.748;13.194;2022-08-19T02:12:44;25.47;;;22.97;;
11771;SDS011;12556;55.748;13.194;2022-08-19T02:15:13;25.13;;;22.37;;
11771;SDS011;12556;55.748;13.194;2022-08-19T02:17:41;25.03;;;22.37;;
11771;SDS011;12556;55.748;13.194;2022-08-19T02:20:08;23.93;;;21.83;;
11771;SDS011;12556;55.748;13.194;2022-08-19T02:22:38;25.17;;;22.80;;
11771;SDS011;12556;55.748;13.194;2022-08-19T02:25:06;28.07;;;25.50;;
11771;SDS011;12556;55.748;13.194;2022-08-19T02:27:34;27.17;;;24.30;;
11771;SDS011;12556;55.748;13.194;2022-08-19T02:30:01;27.13;;;24.33;;
11771;SDS011;12556;55.748;13.194;2022-08-19T02:32:32;24.63;;;22.50;;
11771;SDS011;12556;55.748;13.194;2022-08-19T02:34:59;26.50;;;23.90;;
11771;SDS011;12556;55.748;13.194;2022-08-19T02:37:26;26.97;;;24.57;;
11771;SDS011;12556;55.748;13.194;2022-08-19T02:40:11;28.90;;;26.37;;
11771;SDS011;12556;55.748;13.194;2022-08-19T02:42:38;28.73;;;25.70;;
11771;SDS011;12556;55.748;13.194;2022-08-19T02:45:06;27.63;;;24.93;;
11771;SDS011;12556;55.748;13.194;2022-08-19T02:47:35;52.43;;;29.57;;
11771;SDS011;12556;55.748;13.194;2022-08-19T02:50:02;37.00;;;26.03;;
11771;SDS011;12556;55.748;13.194;2022-08-19T02:52:31;32.47;;;27.77;;
11771;SDS011;12556;55.748;13.194;2022-08-19T02:54:59;48.13;;;28.70;;
11771;SDS011;12556;55.748;13.194;2022-08-19T02:57:26;40.13;;;25.53;;
11771;SDS011;12556;55.748;13.194;2022-08-19T02:59:54;79.87;;;29.87;;
11771;SDS011;12556;55.748;13.194;2022-08-19T03:02:21;46.97;;;30.07;;
11771;SDS011;12556;55.748;13.194;2022-08-19T03:04:49;104.20;;;30.27;;
11771;SDS011;12556;55.748;13.194;2022-08-19T03:07:16;114.33;;;33.73;;
11771;SDS011;12556;55.748;13.194;2022-08-19T03:09:44;84.17;;;29.50;;
11771;SDS011;12556;55.748;13.194;2022-08-19T03:12:11;66.60;;;27.47;;
11771;SDS011;12556;55.748;13.194;2022-08-19T03:14:38;55.77;;;26.40;;
11771;SDS011;12556;55.748;13.194;2022-08-19T03:17:05;30.63;;;25.27;;
11771;SDS011;12556;55.748;13.194;2022-08-19T03:19:33;29.20;;;24.77;;
11771;SDS011;12556;55.748;13.194;2022-08-19T03:22:01;33.00;;;25.37;;
11771;SDS011;12556;55.748;13.194;2022-08-19T03:24:29;26.30;;;23.87;;
11771;SDS011;12556;55.748;13.194;2022-08-19T03:26:57;26.70;;;24.37;;
11771;SDS011;12556;55.748;13.194;2022-08-19T03:29:24;28.63;;;26.13;;
11771;SDS011;12556;55.748;13.194;2022-08-19T03:31:52;28.23;;;25.60;;
11771;SDS011;12556;55.748;13.194;2022-08-19T03:34:21;29.30;;;26.30;;
11771;SDS011;12556;55.748;13.194;2022-08-19T03:36:51;28.83;;;26.33;;
11771;SDS011;12556;55.748;13.194;2022-08-19T03:39:21;30.37;;;27.23;;
11771;SDS011;12556;55.748;13.194;2022-08-19T03:41:48;29.20;;;26.33;;
11771;SDS011;12556;55.748;13.194;2022-08-19T03:44:17;29.73;;;26.83;;
11771;SDS011;12556;55.748;13.194;2022-08-19T03:46:47;28.70;;;26.00;;
11771;SDS011;12556;55.748;13.194;2022-08-19T03:49:15;27.87;;;25.10;;
11771;SDS011;12556;55.748;13.194;2022-08-19T03:51:45;25.77;;;23.50;;
11771;SDS011;12556;55.748;13.194;2022-08-19T03:54:14;27.27;;;24.60;;
11771;SDS011;12556;55.748;13.194;2022-08-19T03:56:44;27.30;;;24.80;;
11771;SDS011;12556;55.748;13.194;2022-08-19T03:59:15;25.37;;;22.97;;
11771;SDS011;12556;55.748;13.194;2022-08-19T04:01:45;24.60;;;22.20;;
11771;SDS011;12556;55.748;13.194;2022-08-19T04:04:12;25.13;;;22.70;;
11771;SDS011;12556;55.748;13.194;2022-08-19T04:06:39;26.53;;;23.93;;
11771;SDS011;12556;55.748;13.194;2022-08-19T04:09:07;26.53;;;24.13;;
11771;SDS011;12556;55.748;13.194;2022-08-19T04:11:36;27.47;;;24.87;;
11771;SDS011;12556;55.748;13.194;2022-08-19T04:14:08;28.83;;;25.87;;
11771;SDS011;12556;55.748;13.194;2022-08-19T04:16:36;29.60;;;26.57;;
11771;SDS011;12556;55.748;13.194;2022-08-19T04:19:03;28.87;;;26.17;;
11771;SDS011;12556;55.748;13.194;2022-08-19T04:21:31;29.80;;;26.63;;
11771;SDS011;12556;55.748;13.194;2022-08-19T04:23:58;29.23;;;26.43;;
11771;SDS011;12556;55.748;13.194;2022-08-19T04:26:27;28.97;;;26.20;;
11771;SDS011;12556;55.748;13.194;2022-08-19T04:28:57;28.43;;;25.43;;
11771;SDS011;12556;55.748;13.194;2022-08-19T04:31:26;28.77;;;26.17;;
11771;SDS011;12556;55.748;13.194;2022-08-19T04:33:56;29.63;;;26.57;;
11771;SDS011;12556;55.748;13.194;2022-08-19T04:36:25;33.20;;;28.53;;
11771;SDS011;12556;55.748;13.194;2022-08-19T04:38:54;33.20;;;30.03;;
11771;SDS011;12556;55.748;13.194;2022-08-19T04:41:21;32.03;;;28.33;;
11771;SDS011;12556;55.748;13.194;2022-08-19T04:44:06;31.63;;;28.53;;
11771;SDS011;12556;55.748;13.194;2022-08-19T04:46:35;30.63;;;27.53;;
11771;SDS011;12556;55.748;13.194;2022-08-19T04:49:02;31.23;;;27.90;;
11771;SDS011;12556;55.748;13.194;2022-08-19T04:51:31;29.47;;;26.73;;
11771;SDS011;12556;55.748;13.194;2022-08-19T04:53:59;29.23;;;26.20;;
11771;SDS011;12556;55.748;13.194;2022-08-19T04:56:28;29.43;;;26.70;;
11771;SDS011;12556;55.748;13.194;2022-08-19T04:58:55;30.63;;;27.57;;
11771;SDS011;12556;55.748;13.194;2022-08-19T05:01:28;30.63;;;27.63;;
11771;SDS011;12556;55.748;13.194;2022-08-19T05:03:58;32.90;;;29.60;;
11771;SDS011;12556;55.748;13.194;2022-08-19T05:06:26;31.97;;;28.97;;
11771;SDS011;12556;55.748;13.194;2022-08-19T05:08:53;32.77;;;29.23;;
11771;SDS011;12556;55.748;13.194;2022-08-19T05:11:21;31.47;;;28.30;;
11771;SDS011;12556;55.748;13.194;2022-08-19T05:13:51;30.43;;;27.30;;
11771;SDS011;12556;55.748;13.194;2022-08-19T05:16:19;33.00;;;29.67;;
11771;SDS011;12556;55.748;13.194;2022-08-19T05:18:47;32.00;;;29.00;;
11771;SDS011;12556;55.748;13.194;2022-08-19T05:21:34;30.47;;;27.40;;
11771;SDS011;12556;55.748;13.194;2022-08-19T05:24:19;30.77;;;27.67;;
11771;SDS011;12556;55.748;13.194;2022-08-19T05:26:48;30.90;;;27.80;;
11771;SDS011;12556;55.748;13.194;2022-08-19T05:29:16;31.03;;;27.87;;
11771;SDS011;12556;55.748;13.194;2022-08-19T05:31:46;30.00;;;27.30;;
11771;SDS011;12556;55.748;13.194;2022-08-19T05:34:14;30.80;;;27.83;;
11771;SDS011;12556;55.748;13.194;2022-08-19T05:36:43;31.73;;;27.40;;
11771;SDS011;12556;55.748;13.194;2022-08-19T05:39:12;29.07;;;26.37;;
11771;SDS011;12556;55.748;13.194;2022-08-19T05:41:41;27.70;;;25.27;;
11771;SDS011;12556;55.748;13.194;2022-08-19T05:44:08;28.37;;;25.80;;
11771;SDS011;12556;55.748;13.194;2022-08-19T05:46:36;27.47;;;24.97;;
11771;SDS011;12556;55.748;13.194;2022-08-19T05:49:04;29.60;;;26.47;;
11771;SDS011;12556;55.748;13.194;2022-08-19T05:51:32;28.33;;;25.73;;
11771;SDS011;12556;55.748;13.194;2022-08-19T05:54:02;26.60;;;24.20;;
11771;SDS011;12556;55.748;13.194;2022-08-19T05:56:30;26.27;;;23.87;;
11771;SDS011;12556;55.748;13.194;2022-08-19T05:58:59;25.17;;;22.90;;
11771;SDS011;12556;55.748;13.194;2022-08-19T06:01:26;23.63;;;21.63;;
11771;SDS011;12556;55.748;13.194;2022-08-19T06:03:53;23.17;;;21.17;;
11771;SDS011;12556;55.748;13.194;2022-08-19T06:06:21;24.27;;;22.23;;
11771;SDS011;12556;55.748;13.194;2022-08-19T06:08:48;23.93;;;21.77;;
11771;SDS011;12556;55.748;13.194;2022-08-19T06:11:18;23.70;;;21.50;;
11771;SDS011;12556;55.748;13.194;2022-08-19T06:13:47;24.80;;;22.57;;
11771;SDS011;12556;55.748;13.194;2022-08-19T06:16:17;23.93;;;21.63;;
11771;SDS011;12556;55.748;13.194;2022-08-19T06:18:47;23.93;;;21.83;;
11771;SDS011;12556;55.748;13.194;2022-08-19T06:21:16;24.90;;;22.70;;
11771;SDS011;12556;55.748;13.194;2022-08-19T06:23:44;23.30;;;21.30;;
11771;SDS011;12556;55.748;13.194;2022-08-19T06:26:12;24.33;;;22.13;;
11771;SDS011;12556;55.748;13.194;2022-08-19T06:28:40;22.93;;;21.03;;
11771;SDS011;12556;55.748;13.194;2022-08-19T06:31:10;23.20;;;21.10;;
11771;SDS011;12556;55.748;13.194;2022-08-19T06:33:38;22.63;;;20.57;;
11771;SDS011;12556;55.748;13.194;2022-08-19T06:36:06;22.70;;;20.77;;
11771;SDS011;12556;55.748;13.194;2022-08-19T06:38:33;21.83;;;20.03;;
11771;SDS011;12556;55.748;13.194;2022-08-19T06:41:01;21.37;;;19.57;;
11771;SDS011;12556;55.748;13.194;2022-08-19T06:43:28;20.53;;;18.83;;
11771;SDS011;12556;55.748;13.194;2022-08-19T06:45:56;22.20;;;19.87;;
11771;SDS011;12556;55.748;13.194;2022-08-19T06:48:24;22.77;;;18.77;;
11771;SDS011;12556;55.748;13.194;2022-08-19T06:50:51;20.83;;;19.00;;
11771;SDS011;12556;55.748;13.194;2022-08-19T06:53:17;20.97;;;19.20;;
11771;SDS011;12556;55.748;13.194;2022-08-19T06:55:45;22.10;;;20.17;;
11771;SDS011;12556;55.748;13.194;2022-08-19T06:58:11;20.27;;;18.57;;
11771;SDS011;12556;55.748;13.194;2022-08-19T07:00:39;19.08;;;17.48;;
11771;SDS011;12556;55.748;13.194;2022-08-19T07:03:07;20.83;;;19.02;;
11771;SDS011;12556;55.748;13.194;2022-08-19T07:05:38;20.25;;;18.55;;
11771;SDS011;12556;55.748;13.194;2022-08-19T07:08:06;19.55;;;17.95;;
11771;SDS011;12556;55.748;13.194;2022-08-19T07:10:34;19.25;;;17.45;;
11771;SDS011;12556;55.748;13.194;2022-08-19T07:13:02;18.58;;;16.80;;
11771;SDS011;12556;55.748;13.194;2022-08-19T07:15:30;19.13;;;17.40;;
11771;SDS011;12556;55.748;13.194;2022-08-19T07:17:58;17.42;;;15.68;;
11771;SDS011;12556;55.748;13.194;2022-08-19T07:20:26;14.95;;;13.60;;
11771;SDS011;12556;55.748;13.194;2022-08-19T07:22:53;14.15;;;12.40;;
11771;SDS011;12556;55.748;13.194;2022-08-19T07:25:20;27.00;;;14.98;;
11771;SDS011;12556;55.748;13.194;2022-08-19T07:27:48;15.30;;;14.00;;
11771;SDS011;12556;55.748;13.194;2022-08-19T07:30:15;15.90;;;14.32;;
11771;SDS011;12556;55.748;13.194;2022-08-19T07:32:42;18.55;;;15.55;;
11771;SDS011;12556;55.748;13.194;2022-08-19T07:35:09;15.55;;;13.35;;
11771;SDS011;12556;55.748;13.194;2022-08-19T07:37:37;15.07;;;13.52;;
11771;SDS011;12556;55.748;13.194;2022-08-19T07:40:09;15.43;;;14.07;;
11771;SDS011;12556;55.748;13.194;2022-08-19T07:42:37;14.00;;;12.80;;
11771;SDS011;12556;55.748;13.194;2022-08-19T07:45:04;15.40;;;13.82;;
11771;SDS011;12556;55.748;13.194;2022-08-19T07:47:33;15.38;;;13.88;;
11771;SDS011;12556;55.748;13.194;2022-08-19T07:49:59;13.90;;;12.80;;
11771;SDS011;12556;55.748;13.194;2022-08-19T07:52:29;13.48;;;12.23;;
11771;SDS011;12556;55.748;13.194;2022-08-19T07:54:57;13.27;;;12.18;;
11771;SDS011;12556;55.748;13.194;2022-08-19T07:57:28;13.90;;;12.80;;
11771;SDS011;12556;55.748;13.194;2022-08-19T07:59:55;13.90;;;12.50;;
11771;SDS011;12556;55.748;13.194;2022-08-19T08:02:22;12.93;;;11.82;;
11771;SDS011;12556;55.748;13.194;2022-08-19T08:04:49;12.40;;;11.30;;
11771;SDS011;12556;55.748;13.194;2022-08-19T08:07:34;13.70;;;12.48;;
11771;SDS011;12556;55.748;13.194;2022-08-19T08:10:19;11.27;;;10.25;;
11771;SDS011;12556;55.748;13.194;2022-08-19T08:12:46;10.70;;;9.70;;
11771;SDS011;12556;55.748;13.194;2022-08-19T08:15:14;10.60;;;9.60;;
11771;SDS011;12556;55.748;13.194;2022-08-19T08:17:43;10.85;;;9.82;;
11771;SDS011;12556;55.748;13.194;2022-08-19T08:20:11;11.02;;;10.13;;
11771;SDS011;12556;55.748;13.194;2022-08-19T08:22:42;10.07;;;9.27;;
11771;SDS011;12556;55.748;13.194;2022-08-19T08:25:29;11.82;;;9.68;;
11771;SDS011;12556;55.748;13.194;2022-08-19T08:27:57;10.63;;;8.68;;
11771;SDS011;12556;55.748;13.194;2022-08-19T08:30:26;9.63;;;8.65;;
11771;SDS011;12556;55.748;13.194;2022-08-19T08:32:54;9.95;;;9.00;;
11771;SDS011;12556;55.748;13.194;2022-08-19T08:35:22;10.57;;;9.50;;
11771;SDS011;12556;55.748;13.194;2022-08-19T08:37:50;10.30;;;9.38;;
11771;SDS011;12556;55.748;13.194;2022-08-19T08:40:26;10.48;;;9.00;;
11771;SDS011;12556;55.748;13.194;2022-08-19T08:43:00;9.77;;;8.88;;
11771;SDS011;12556;55.748;13.194;2022-08-19T08:45:33;9.07;;;8.38;;
11771;SDS011;12556;55.748;13.194;2022-08-19T08:48:03;10.82;;;9.93;;
11771;SDS011;12556;55.748;13.194;2022-08-19T08:50:39;9.48;;;8.77;;
11771;SDS011;12556;55.748;13.194;2022-08-19T08:53:09;9.57;;;8.85;;
11771;SDS011;12556;55.748;13.194;2022-08-19T08:55:40;9.75;;;8.85;;
11771;SDS011;12556;55.748;13.194;2022-08-19T08:58:10;11.40;;;10.20;;
11771;SDS011;12556;55.748;13.194;2022-08-19T09:00:43;10.52;;;9.73;;
11771;SDS011;12556;55.748;13.194;2022-08-19T09:03:14;11.35;;;10.38;;
11771;SDS011;12556;55.748;13.194;2022-08-19T09:05:45;11.57;;;10.68;;
11771;SDS011;12556;55.748;13.194;2022-08-19T09:08:24;11.75;;;10.65;;
11771;SDS011;12556;55.748;13.194;2022-08-19T09:11:05;11.27;;;10.15;;
11771;SDS011;12556;55.748;13.194;2022-08-19T09:13:36;13.00;;;10.23;;
11771;SDS011;12556;55.748;13.194;2022-08-19T09:16:12;10.52;;;9.52;;
11771;SDS011;12556;55.748;13.194;2022-08-19T09:18:42;11.40;;;10.30;;
11771;SDS011;12556;55.748;13.194;2022-08-19T09:21:11;10.32;;;9.43;;
11771;SDS011;12556;55.748;13.194;2022-08-19T09:23:38;11.35;;;10.07;;
11771;SDS011;12556;55.748;13.194;2022-08-19T09:26:09;10.88;;;9.82;;
11771;SDS011;12556;55.748;13.194;2022-08-19T09:28:39;10.23;;;9.23;;
11771;SDS011;12556;55.748;13.194;2022-08-19T09:31:08;10.95;;;9.57;;
11771;SDS011;12556;55.748;13.194;2022-08-19T09:33:35;10.18;;;9.23;;
11771;SDS011;12556;55.748;13.194;2022-08-19T09:36:03;9.80;;;8.90;;
11771;SDS011;12556;55.748;13.194;2022-08-19T09:38:32;9.15;;;8.45;;
11771;SDS011;12556;55.748;13.194;2022-08-19T09:41:03;10.05;;;9.25;;
11771;SDS011;12556;55.748;13.194;2022-08-19T09:43:32;9.10;;;8.40;;
11771;SDS011;12556;55.748;13.194;2022-08-19T09:46:01;8.85;;;8.10;;
11771;SDS011;12556;55.748;13.194;2022-08-19T09:48:30;9.95;;;8.57;;
11771;SDS011;12556;55.748;13.194;2022-08-19T09:51:01;9.25;;;7.95;;
11771;SDS011;12556;55.748;13.194;2022-08-19T09:53:29;8.05;;;7.45;;
11771;SDS011;12556;55.748;13.194;2022-08-19T09:55:56;7.80;;;7.20;;
11771;SDS011;12556;55.748;13.194;2022-08-19T09:58:23;8.20;;;7.05;;
11771;SDS011;12556;55.748;13.194;2022-08-19T10:00:54;7.97;;;7.20;;
11771;SDS011;12556;55.748;13.194;2022-08-19T10:03:21;8.52;;;7.25;;
11771;SDS011;12556;55.748;13.194;2022-08-19T10:05:48;8.13;;;7.45;;
11771;SDS011;12556;55.748;13.194;2022-08-19T10:08:16;7.72;;;6.95;;
11771;SDS011;12556;55.748;13.194;2022-08-19T10:10:45;19.40;;;8.77;;
11771;SDS011;12556;55.748;13.194;2022-08-19T10:13:12;7.38;;;6.78;;
11771;SDS011;12556;55.748;13.194;2022-08-19T10:15:41;7.10;;;6.35;;
11771;SDS011;12556;55.748;13.194;2022-08-19T10:18:10;7.53;;;6.82;;
11771;SDS011;12556;55.748;13.194;2022-08-19T10:20:37;7.43;;;6.72;;
11771;SDS011;12556;55.748;13.194;2022-08-19T10:23:04;6.95;;;6.45;;
11771;SDS011;12556;55.748;13.194;2022-08-19T10:25:31;8.23;;;7.50;;
11771;SDS011;12556;55.748;13.194;2022-08-19T10:28:00;7.30;;;6.78;;
11771;SDS011;12556;55.748;13.194;2022-08-19T10:30:27;11.88;;;8.20;;
11771;SDS011;12556;55.748;13.194;2022-08-19T10:32:54;7.93;;;7.20;;
11771;SDS011;12556;55.748;13.194;2022-08-19T10:35:22;8.27;;;7.50;;
11771;SDS011;12556;55.748;13.194;2022-08-19T10:37:51;8.43;;;7.55;;
11771;SDS011;12556;55.748;13.194;2022-08-19T10:40:18;8.38;;;7.70;;
11771;SDS011;12556;55.748;13.194;2022-08-19T10:42:45;8.75;;;8.05;;
11771;SDS011;12556;55.748;13.194;2022-08-19T10:45:12;9.00;;;8.20;;
11771;SDS011;12556;55.748;13.194;2022-08-19T10:47:39;8.43;;;7.63;;
11771;SDS011;12556;55.748;13.194;2022-08-19T10:50:06;7.38;;;6.82;;
11771;SDS011;12556;55.748;13.194;2022-08-19T10:53:02;11.40;;;7.35;;
11771;SDS011;12556;55.748;13.194;2022-08-19T10:55:30;9.18;;;7.65;;
11771;SDS011;12556;55.748;13.194;2022-08-19T10:58:23;8.80;;;7.57;;
11771;SDS011;12556;55.748;13.194;2022-08-19T11:00:51;10.05;;;7.47;;
11771;SDS011;12556;55.748;13.194;2022-08-19T11:03:19;9.35;;;8.18;;
11771;SDS011;12556;55.748;13.194;2022-08-19T11:05:46;9.48;;;8.57;;
11771;SDS011;12556;55.748;13.194;2022-08-19T11:08:16;9.10;;;8.20;;
11771;SDS011;12556;55.748;13.194;2022-08-19T11:10:43;9.05;;;8.15;;
11771;SDS011;12556;55.748;13.194;2022-08-19T11:13:09;7.95;;;7.35;;
11771;SDS011;12556;55.748;13.194;2022-08-19T11:15:37;8.57;;;7.63;;
11771;SDS011;12556;55.748;13.194;2022-08-19T11:18:04;8.38;;;7.57;;
11771;SDS011;12556;55.748;13.194;2022-08-19T11:20:33;8.55;;;7.43;;
11771;SDS011;12556;55.748;13.194;2022-08-19T11:23:00;8.45;;;7.60;;
11771;SDS011;12556;55.748;13.194;2022-08-19T11:25:28;8.77;;;7.50;;
11771;SDS011;12556;55.748;13.194;2022-08-19T11:27:55;8.13;;;7.35;;
11771;SDS011;12556;55.748;13.194;2022-08-19T11:30:21;7.85;;;7.03;;
11771;SDS011;12556;55.748;13.194;2022-08-19T11:32:48;8.27;;;7.47;;
11771;SDS011;12556;55.748;13.194;2022-08-19T11:35:15;13.02;;;8.40;;
11771;SDS011;12556;55.748;13.194;2022-08-19T11:37:45;7.88;;;7.18;;
11771;SDS011;12556;55.748;13.194;2022-08-19T11:40:11;8.00;;;7.30;;
11771;SDS011;12556;55.748;13.194;2022-08-19T11:42:39;8.13;;;7.15;;
11771;SDS011;12556;55.748;13.194;2022-08-19T11:45:21;7.78;;;7.18;;
11771;SDS011;12556;55.748;13.194;2022-08-19T11:47:48;8.32;;;7.57;;
11771;SDS011;12556;55.748;13.194;2022-08-19T11:50:15;8.43;;;7.63;;
11771;SDS011;12556;55.748;13.194;2022-08-19T11:52:43;8.10;;;7.40;;
11771;SDS011;12556;55.748;13.194;2022-08-19T11:55:10;7.93;;;7.13;;
11771;SDS011;12556;55.748;13.194;2022-08-19T11:57:40;8.55;;;7.78;;
11771;SDS011;12556;55.748;13.194;2022-08-19T12:00:08;8.43;;;7.72;;
11771;SDS011;12556;55.748;13.194;2022-08-19T12:02:37;8.35;;;7.55;;
11771;SDS011;12556;55.748;13.194;2022-08-19T12:05:04;8.68;;;7.97;;
11771;SDS011;12556;55.748;13.194;2022-08-19T12:07:32;9.98;;;8.15;;
11771;SDS011;12556;55.748;13.194;2022-08-19T12:09:59;9.15;;;8.43;;
11771;SDS011;12556;55.748;13.194;2022-08-19T12:12:27;9.88;;;8.98;;
11771;SDS011;12556;55.748;13.194;2022-08-19T12:14:55;9.85;;;8.85;;
11771;SDS011;12556;55.748;13.194;2022-08-19T12:17:23;9.57;;;8.70;;
11771;SDS011;12556;55.748;13.194;2022-08-19T12:19:51;13.40;;;9.32;;
11771;SDS011;12556;55.748;13.194;2022-08-19T12:22:17;9.85;;;8.95;;
11771;SDS011;12556;55.748;13.194;2022-08-19T12:24:46;9.85;;;8.88;;
11771;SDS011;12556;55.748;13.194;2022-08-19T12:27:15;9.63;;;8.70;;
11771;SDS011;12556;55.748;13.194;2022-08-19T12:29:42;8.98;;;8.23;;
11771;SDS011;12556;55.748;13.194;2022-08-19T12:32:10;10.50;;;9.50;;
11771;SDS011;12556;55.748;13.194;2022-08-19T12:34:37;9.82;;;9.02;;
11771;SDS011;12556;55.748;13.194;2022-08-19T12:37:04;9.25;;;8.40;;
11771;SDS011;12556;55.748;13.194;2022-08-19T12:39:36;9.85;;;9.05;;
11771;SDS011;12556;55.748;13.194;2022-08-19T12:42:04;10.32;;;9.38;;
11771;SDS011;12556;55.748;13.194;2022-08-19T12:44:32;9.85;;;9.05;;
11771;SDS011;12556;55.748;13.194;2022-08-19T12:46:59;9.63;;;8.82;;
11771;SDS011;12556;55.748;13.194;2022-08-19T12:49:29;11.10;;;10.20;;
11771;SDS011;12556;55.748;13.194;2022-08-19T12:51:56;9.52;;;8.73;;
11771;SDS011;12556;55.748;13.194;2022-08-19T12:54:24;11.52;;;9.30;;
11771;SDS011;12556;55.748;13.194;2022-08-19T12:56:50;9.77;;;8.98;;
11771;SDS011;12556;55.748;13.194;2022-08-19T12:59:17;10.88;;;9.80;;
11771;SDS011;12556;55.748;13.194;2022-08-19T13:01:44;9.65;;;8.85;;
11771;SDS011;12556;55.748;13.194;2022-08-19T13:04:11;11.00;;;9.90;;
11771;SDS011;12556;55.748;13.194;2022-08-19T13:06:39;9.63;;;8.73;;
11771;SDS011;12556;55.748;13.194;2022-08-19T13:09:07;10.07;;;9.23;;
11771;SDS011;12556;55.748;13.194;2022-08-19T13:11:35;11.18;;;10.15;;
11771;SDS011;12556;55.748;13.194;2022-08-19T13:14:03;12.82;;;11.02;;
11771;SDS011;12556;55.748;13.194;2022-08-19T13:16:30;13.20;;;11.90;;
11771;SDS011;12556;55.748;13.194;2022-08-19T13:18:57;12.02;;;11.02;;
11771;SDS011;12556;55.748;13.194;2022-08-19T13:21:25;14.43;;;13.05;;
11771;SDS011;12556;55.748;13.194;2022-08-19T13:23:56;13.88;;;12.68;;
11771;SDS011;12556;55.748;13.194;2022-08-19T13:26:23;12.85;;;11.63;;
11771;SDS011;12556;55.748;13.194;2022-08-19T13:28:50;13.38;;;12.20;;
11771;SDS011;12556;55.748;13.194;2022-08-19T13:31:35;13.23;;;12.02;;
11771;SDS011;12556;55.748;13.194;2022-08-19T13:34:26;14.55;;;13.32;;
11771;SDS011;12556;55.748;13.194;2022-08-19T13:36:54;13.57;;;12.30;;
11771;SDS011;12556;55.748;13.194;2022-08-19T13:39:23;14.45;;;13.15;;
11771;SDS011;12556;55.748;13.194;2022-08-19T13:41:50;15.95;;;14.40;;
11771;SDS011;12556;55.748;13.194;2022-08-19T13:44:17;16.50;;;15.00;;
11771;SDS011;12556;55.748;13.194;2022-08-19T13:46:44;16.77;;;15.23;;
11771;SDS011;12556;55.748;13.194;2022-08-19T13:49:12;17.17;;;15.38;;
11771;SDS011;12556;55.748;13.194;2022-08-19T13:51:40;15.98;;;14.50;;
11771;SDS011;12556;55.748;13.194;2022-08-19T13:54:07;15.73;;;14.43;;
11771;SDS011;12556;55.748;13.194;2022-08-19T13:56:38;17.05;;;15.32;;
11771;SDS011;12556;55.748;13.194;2022-08-19T13:59:06;18.98;;;17.20;;
11771;SDS011;12556;55.748;13.194;2022-08-19T14:01:33;18.83;;;17.08;;
11771;SDS011;12556;55.748;13.194;2022-08-19T14:04:00;21.48;;;19.48;;
11771;SDS011;12556;55.748;13.194;2022-08-19T14:06:28;20.05;;;18.25;;
11771;SDS011;12556;55.748;13.194;2022-08-19T14:08:55;21.38;;;19.23;;
11771;SDS011;12556;55.748;13.194;2022-08-19T14:11:21;19.40;;;17.55;;
11771;SDS011;12556;55.748;13.194;2022-08-19T14:13:50;22.00;;;20.00;;
11771;SDS011;12556;55.748;13.194;2022-08-19T14:16:18;21.10;;;19.20;;
11771;SDS011;12556;55.748;13.194;2022-08-19T14:18:44;23.30;;;21.13;;
11771;SDS011;12556;55.748;13.194;2022-08-19T14:21:14;21.73;;;19.73;;
11771;SDS011;12556;55.748;13.194;2022-08-19T14:23:42;21.98;;;19.98;;
11771;SDS011;12556;55.748;13.194;2022-08-19T14:26:10;20.02;;;18.33;;